Time;durP1;ratioP1;P1;durP2;ratioP2;P2;SDS_P1;SDS_P2;PMS_P1;PMS_P2;Temp;Humidity;BMP_temperature;BMP_pressure;BME280_temperature;BME280_humidity;BME280_pressure;Samples;Min_cycle;Max_cycle;Signal;HPM_P1;HPM_P2
2023/10/22 00:00:44;;;;;;;0.85;0.68;;;13.00;99.90;;;;;;5074652;28;20473;-48
2023/10/22 00:03:09;;;;;;;0.80;0.30;;;13.10;99.90;;;;;;5074429;28;20037;-48
2023/10/22 00:05:35;;;;;;;6.75;0.75;;;13.10;99.90;;;;;;5072046;28;20506;-52
2023/10/22 00:08:01;;;;;;;2.38;0.60;;;13.00;99.90;;;;;;5074428;28;20536;-51
2023/10/22 00:10:27;;;;;;;3.53;0.73;;;13.00;99.90;;;;;;5073892;28;20473;-50
2023/10/22 00:12:53;;;;;;;0.57;0.57;;;13.00;99.90;;;;;;5058371;28;20501;-50
2023/10/22 00:15:23;;;;;;;2.00;1.25;;;13.10;99.90;;;;;;5067339;28;20027;-53
2023/10/22 00:17:49;;;;;;;2.70;0.73;;;13.10;99.90;;;;;;5064530;28;20021;-49
2023/10/22 00:20:15;;;;;;;2.72;1.15;;;13.00;99.90;;;;;;5073137;28;20031;-49
2023/10/22 00:22:41;;;;;;;2.38;0.70;;;13.00;99.90;;;;;;5073571;28;20017;-45
2023/10/22 00:25:07;;;;;;;1.27;0.77;;;13.00;99.90;;;;;;5074281;28;20163;-51
2023/10/22 00:27:33;;;;;;;5.90;1.27;;;13.00;99.90;;;;;;5074039;28;20488;-51
2023/10/22 00:30:00;;;;;;;1.23;0.55;;;12.90;99.90;;;;;;5073882;28;20013;-46
2023/10/22 00:32:26;;;;;;;4.90;1.27;;;13.00;99.90;;;;;;5073482;28;20042;-48
2023/10/22 00:34:51;;;;;;;3.42;0.85;;;13.00;99.90;;;;;;5072931;28;20115;-46
2023/10/22 00:37:17;;;;;;;5.97;1.00;;;13.00;99.90;;;;;;5073964;28;20115;-43
2023/10/22 00:39:43;;;;;;;2.42;1.20;;;13.00;99.90;;;;;;5070634;28;20517;-40
2023/10/22 00:42:11;;;;;;;2.83;0.95;;;13.00;99.90;;;;;;5072248;28;20020;-44
2023/10/22 00:44:37;;;;;;;4.30;1.00;;;13.10;99.90;;;;;;5072820;28;20029;-44
2023/10/22 00:47:04;;;;;;;7.57;0.90;;;13.10;99.90;;;;;;5073325;28;20529;-47
2023/10/22 00:49:30;;;;;;;6.63;1.00;;;13.10;99.90;;;;;;5072905;28;20020;-58
2023/10/22 00:51:56;;;;;;;2.88;1.05;;;13.10;99.90;;;;;;5073264;28;20086;-43
2023/10/22 00:54:24;;;;;;;4.00;1.05;;;13.10;99.90;;;;;;5073061;28;20021;-45
2023/10/22 00:56:51;;;;;;;7.13;1.10;;;13.10;99.90;;;;;;5071746;28;20054;-44
2023/10/22 00:59:17;;;;;;;2.35;1.00;;;13.20;99.90;;;;;;5073332;28;20088;-44
2023/10/22 01:01:43;;;;;;;2.40;1.40;;;13.30;99.90;;;;;;5072997;28;20069;-43
2023/10/22 01:04:09;;;;;;;6.65;1.10;;;13.30;99.90;;;;;;5072615;28;20532;-42
2023/10/22 01:06:38;;;;;;;3.22;0.90;;;13.30;99.90;;;;;;5070838;28;20096;-45
2023/10/22 01:09:05;;;;;;;3.10;0.93;;;13.30;99.90;;;;;;5071993;28;20040;-45
2023/10/22 01:11:32;;;;;;;3.47;1.27;;;13.20;99.90;;;;;;5072536;28;20032;-46
2023/10/22 01:13:57;;;;;;;6.90;1.02;;;13.20;99.90;;;;;;5072978;28;20081;-46
2023/10/22 01:16:23;;;;;;;1.90;1.13;;;13.20;99.90;;;;;;5073022;28;20463;-44
2023/10/22 01:18:49;;;;;;;1.00;0.98;;;13.20;99.90;;;;;;5072968;28;20051;-37
2023/10/22 01:21:14;;;;;;;3.50;1.70;;;13.20;99.90;;;;;;5073036;28;20025;-44
2023/10/22 01:23:40;;;;;;;2.25;0.77;;;13.20;99.90;;;;;;5073260;28;20021;-44
2023/10/22 01:26:06;;;;;;;2.42;1.00;;;13.20;99.90;;;;;;5072109;28;20039;-43
2023/10/22 01:28:33;;;;;;;3.55;0.65;;;13.20;99.90;;;;;;5073190;28;20078;-44
2023/10/22 01:30:58;;;;;;;1.40;0.77;;;13.20;99.90;;;;;;5072414;28;20031;-41
2023/10/22 01:33:25;;;;;;;0.63;0.63;;;13.20;99.90;;;;;;5072760;28;20029;-45
2023/10/22 01:35:50;;;;;;;3.17;0.63;;;13.20;99.90;;;;;;5072940;28;20046;-45
2023/10/22 01:38:16;;;;;;;1.70;0.82;;;13.20;99.90;;;;;;5072840;28;20168;-43
2023/10/22 01:40:42;;;;;;;0.50;0.50;;;13.20;99.90;;;;;;5054519;28;20017;-46
2023/10/22 01:43:08;;;;;;;2.85;0.93;;;13.20;99.90;;;;;;5072619;28;20027;-41
2023/10/22 01:45:34;;;;;;;0.77;0.77;;;13.20;99.90;;;;;;5072631;28;20037;-41
2023/10/22 01:47:59;;;;;;;1.15;0.70;;;13.20;99.90;;;;;;5073018;28;20029;-42
2023/10/22 01:50:25;;;;;;;1.95;0.60;;;13.20;99.90;;;;;;5072002;28;20029;-49
2023/10/22 01:52:51;;;;;;;2.25;0.70;;;13.10;99.90;;;;;;5072607;28;20025;-38
2023/10/22 01:55:17;;;;;;;1.10;0.60;;;13.10;99.90;;;;;;5072552;28;20117;-42
2023/10/22 01:57:43;;;;;;;1.55;0.70;;;13.10;99.90;;;;;;5072654;28;20052;-44
2023/10/22 02:00:11;;;;;;;0.70;0.60;;;13.20;99.90;;;;;;5072604;28;20056;-44
2023/10/22 02:02:39;;;;;;;0.80;0.57;;;13.20;99.90;;;;;;5072379;28;20044;-48
2023/10/22 02:05:05;;;;;;;0.30;0.30;;;13.20;99.90;;;;;;5072272;28;20025;-46
2023/10/22 02:07:31;;;;;;;2.08;0.50;;;13.20;99.90;;;;;;5072686;28;20358;-42
2023/10/22 02:09:57;;;;;;;0.68;0.45;;;13.20;99.90;;;;;;5076693;28;20454;-43
2023/10/22 02:12:29;;;;;;;1.17;0.40;;;13.20;99.90;;;;;;5076707;28;20052;-44
2023/10/22 02:14:55;;;;;;;0.40;0.40;;;13.20;99.90;;;;;;5076392;28;20055;-46
2023/10/22 02:17:21;;;;;;;0.43;0.40;;;13.20;99.90;;;;;;5076279;28;20021;-42
2023/10/22 02:19:47;;;;;;;1.33;0.60;;;13.20;99.90;;;;;;5076234;28;20058;-40
2023/10/22 02:22:13;;;;;;;0.45;0.32;;;13.10;99.90;;;;;;5076580;28;20047;-42
2023/10/22 02:24:42;;;;;;;0.55;0.40;;;13.10;99.90;;;;;;5075944;28;20025;-42
2023/10/22 02:27:08;;;;;;;0.68;0.40;;;13.00;99.90;;;;;;5076483;28;20427;-38
2023/10/22 02:29:35;;;;;;;2.10;1.08;;;13.00;99.90;;;;;;5058324;28;20029;-39
2023/10/22 02:32:01;;;;;;;0.53;0.50;;;13.00;99.90;;;;;;5076158;28;20020;-42
2023/10/22 02:34:26;;;;;;;0.50;0.50;;;13.00;99.90;;;;;;5076042;28;20564;-37
2023/10/22 02:36:52;;;;;;;0.43;0.43;;;13.10;99.90;;;;;;5075912;28;20099;-39
2023/10/22 02:39:19;;;;;;;1.27;0.50;;;13.00;99.90;;;;;;5075745;28;20046;-45
2023/10/22 02:41:45;;;;;;;0.93;0.45;;;13.00;99.90;;;;;;5075968;28;20358;-39
2023/10/22 02:44:10;;;;;;;0.52;0.50;;;13.00;99.90;;;;;;5075381;28;20044;-39
2023/10/22 02:46:36;;;;;;;0.90;0.52;;;13.10;99.90;;;;;;5075833;28;20035;-39
2023/10/22 02:49:03;;;;;;;0.70;0.70;;;13.10;99.90;;;;;;5075714;28;20024;-39
2023/10/22 02:51:29;;;;;;;0.82;0.52;;;13.10;99.90;;;;;;5076007;28;20034;-45
2023/10/22 02:53:54;;;;;;;0.45;0.43;;;13.10;99.90;;;;;;5075416;28;20038;-42
2023/10/22 02:56:20;;;;;;;1.48;0.52;;;13.10;99.90;;;;;;5080488;28;20025;-39
2023/10/22 02:58:46;;;;;;;1.88;0.57;;;13.20;99.90;;;;;;5094817;28;20027;-37
2023/10/22 03:01:12;;;;;;;3.80;0.50;;;13.20;99.90;;;;;;5095823;28;20012;-38
2023/10/22 03:03:41;;;;;;;2.65;0.47;;;13.20;99.90;;;;;;5093143;28;20030;-39
2023/10/22 03:06:08;;;;;;;1.48;0.45;;;13.20;99.90;;;;;;5075477;28;20028;-41
2023/10/22 03:08:35;;;;;;;1.35;0.35;;;13.20;99.90;;;;;;5075491;28;20031;-35
2023/10/22 03:11:02;;;;;;;0.40;0.40;;;13.20;99.90;;;;;;5075187;28;20107;-37
2023/10/22 03:13:28;;;;;;;1.58;1.05;;;13.20;99.90;;;;;;5075518;28;20519;-37
2023/10/22 03:15:53;;;;;;;3.53;0.50;;;13.20;99.90;;;;;;5075612;28;20021;-35
2023/10/22 03:18:19;;;;;;;7.68;1.08;;;13.10;99.90;;;;;;5075566;28;20096;-38
2023/10/22 03:20:46;;;;;;;4.95;1.05;;;13.10;99.90;;;;;;5074273;28;20036;-38
2023/10/22 03:23:12;;;;;;;2.75;1.40;;;13.10;99.90;;;;;;5075490;28;20048;-36
2023/10/22 03:25:39;;;;;;;3.90;1.88;;;13.10;99.90;;;;;;5056934;28;20055;-36
2023/10/22 03:28:06;;;;;;;3.90;1.80;;;13.10;99.90;;;;;;5075392;28;20099;-39
2023/10/22 03:30:37;;;;;;;1.75;1.48;;;13.00;99.90;;;;;;5057087;28;20400;-36
2023/10/22 03:33:02;;;;;;;4.97;1.77;;;12.90;99.90;;;;;;5074960;28;20021;-36
2023/10/22 03:35:28;;;;;;;1.67;1.58;;;12.80;99.90;;;;;;5074834;28;20025;-36
2023/10/22 03:37:53;;;;;;;2.15;1.90;;;12.70;99.90;;;;;;5074987;28;20488;-36
2023/10/22 03:40:19;;;;;;;6.25;2.50;;;12.60;99.90;;;;;;5074731;28;20025;-35
2023/10/22 03:42:45;;;;;;;2.33;2.13;;;12.60;99.90;;;;;;5074813;28;20514;-35
2023/10/22 03:45:12;;;;;;;7.63;2.70;;;12.60;99.90;;;;;;5065955;28;20036;-36
2023/10/22 03:47:38;;;;;;;7.45;2.75;;;12.50;99.90;;;;;;5075130;28;20039;-37
2023/10/22 03:50:04;;;;;;;6.22;2.65;;;12.50;99.90;;;;;;5074822;28;20021;-36
2023/10/22 03:52:29;;;;;;;5.50;3.00;;;12.40;99.90;;;;;;5074935;28;20464;-37
2023/10/22 03:54:55;;;;;;;8.02;2.78;;;12.30;99.90;;;;;;5074418;28;20020;-36
2023/10/22 03:57:21;;;;;;;9.35;3.17;;;12.40;99.90;;;;;;5074576;28;20083;-38
2023/10/22 03:59:46;;;;;;;8.43;2.97;;;12.30;99.90;;;;;;5074512;28;20024;-36
2023/10/22 04:02:12;;;;;;;4.13;2.80;;;12.30;99.90;;;;;;5074355;28;20472;-35
2023/10/22 04:04:38;;;;;;;5.47;2.20;;;12.30;99.90;;;;;;5074200;28;20507;-36
2023/10/22 04:07:03;;;;;;;3.83;2.50;;;12.30;99.90;;;;;;5074380;28;20416;-33
2023/10/22 04:09:29;;;;;;;4.80;2.30;;;12.30;99.90;;;;;;5074350;28;20477;-36
2023/10/22 04:11:56;;;;;;;3.83;2.05;;;12.30;99.90;;;;;;5074190;28;20025;-36
2023/10/22 04:14:21;;;;;;;4.38;1.52;;;12.20;99.90;;;;;;5073984;28;20039;-36
2023/10/22 04:16:49;;;;;;;2.78;1.33;;;12.10;99.90;;;;;;5074155;28;20020;-36
2023/10/22 04:19:15;;;;;;;4.28;1.45;;;12.10;99.90;;;;;;5073703;28;20096;-39
2023/10/22 04:21:41;;;;;;;3.22;1.42;;;12.10;99.90;;;;;;5073846;28;20100;-36
2023/10/22 04:24:07;;;;;;;16.60;2.33;;;12.10;99.90;;;;;;5056277;28;20040;-36
2023/10/22 04:26:34;;;;;;;7.75;1.50;;;12.10;99.90;;;;;;5073795;28;20051;-37
2023/10/22 04:28:59;;;;;;;7.60;2.30;;;12.20;99.90;;;;;;5073689;28;20020;-36
2023/10/22 04:31:26;;;;;;;4.82;1.20;;;12.20;99.90;;;;;;5073990;28;20421;-37
2023/10/22 04:33:51;;;;;;;4.15;1.60;;;12.20;99.90;;;;;;5073579;28;20056;-38
2023/10/22 04:36:21;;;;;;;4.38;1.80;;;12.10;99.90;;;;;;5073662;28;20511;-43
2023/10/22 04:38:50;;;;;;;6.75;1.40;;;12.20;99.90;;;;;;5055563;28;20488;-40
2023/10/22 04:41:16;;;;;;;3.38;1.63;;;12.20;99.90;;;;;;5073516;28;20028;-39
2023/10/22 04:43:41;;;;;;;1.98;1.20;;;12.20;99.90;;;;;;5047793;28;20445;-37
2023/10/22 04:46:07;;;;;;;6.50;1.65;;;12.30;99.90;;;;;;5045940;28;20044;-39
2023/10/22 04:48:32;;;;;;;12.80;1.75;;;12.30;99.90;;;;;;5073309;28;20426;-40
2023/10/22 04:51:03;;;;;;;1.80;1.60;;;12.30;99.90;;;;;;5073759;28;20032;-38
2023/10/22 04:53:29;;;;;;;5.00;1.58;;;12.30;99.90;;;;;;5073193;28;20470;-38
2023/10/22 04:55:55;;;;;;;5.72;1.73;;;12.30;99.90;;;;;;5073507;28;20049;-40
2023/10/22 04:58:21;;;;;;;8.35;1.60;;;12.40;99.90;;;;;;5073542;28;20017;-39
2023/10/22 05:00:50;;;;;;;2.55;1.67;;;12.30;99.90;;;;;;5055322;28;20029;-40
2023/10/22 05:03:15;;;;;;;3.20;1.30;;;12.30;99.90;;;;;;5073016;28;20086;-36
2023/10/22 05:05:41;;;;;;;2.63;1.13;;;12.30;99.90;;;;;;5073011;28;20481;-38
2023/10/22 05:08:07;;;;;;;2.65;1.50;;;12.30;99.90;;;;;;5073239;28;20103;-38
2023/10/22 05:10:38;;;;;;;3.15;1.80;;;12.30;99.90;;;;;;5073047;28;20028;-38
2023/10/22 05:13:04;;;;;;;3.30;1.92;;;12.30;99.90;;;;;;5073227;28;20036;-38
2023/10/22 05:15:30;;;;;;;3.75;1.90;;;12.30;99.90;;;;;;5073071;28;20017;-39
2023/10/22 05:17:57;;;;;;;4.35;1.98;;;12.30;99.90;;;;;;5072827;28;20503;-38
2023/10/22 05:20:27;;;;;;;2.90;1.83;;;12.30;99.90;;;;;;5072984;28;20103;-36
2023/10/22 05:22:53;;;;;;;5.60;2.38;;;12.30;99.90;;;;;;5072938;28;20067;-38
2023/10/22 05:25:20;;;;;;;3.78;1.80;;;12.30;99.90;;;;;;5072721;28;20055;-42
2023/10/22 05:27:46;;;;;;;5.33;2.03;;;12.30;99.90;;;;;;5073177;28;20024;-39
2023/10/22 05:30:13;;;;;;;11.35;2.85;;;12.30;99.90;;;;;;5073037;28;20031;-40
2023/10/22 05:32:38;;;;;;;6.18;2.20;;;12.30;99.90;;;;;;5072546;28;20440;-38
2023/10/22 05:35:04;;;;;;;4.85;1.95;;;12.30;99.90;;;;;;5072881;28;20051;-35
2023/10/22 05:37:30;;;;;;;7.15;2.08;;;12.30;99.90;;;;;;5072892;28;20048;-37
2023/10/22 05:39:56;;;;;;;5.28;2.15;;;12.30;99.90;;;;;;5072849;28;20385;-38
2023/10/22 05:42:22;;;;;;;4.88;1.75;;;12.30;99.90;;;;;;5072363;28;20024;-39
2023/10/22 05:44:47;;;;;;;5.55;1.90;;;12.30;99.90;;;;;;5072287;28;20420;-39
2023/10/22 05:47:13;;;;;;;3.13;1.40;;;12.30;99.90;;;;;;5072802;28;20021;-38
2023/10/22 05:49:38;;;;;;;6.63;2.17;;;12.30;99.90;;;;;;5072484;28;20519;-41
2023/10/22 05:52:04;;;;;;;2.53;1.27;;;12.30;99.90;;;;;;5072646;28;20100;-38
2023/10/22 05:54:30;;;;;;;5.03;1.38;;;12.30;99.90;;;;;;5072842;28;20070;-38
2023/10/22 05:56:55;;;;;;;6.55;1.60;;;12.30;99.90;;;;;;5072493;28;20112;-38
2023/10/22 05:59:21;;;;;;;6.97;1.50;;;12.30;99.90;;;;;;5072907;28;20381;-40
2023/10/22 06:01:47;;;;;;;5.68;1.30;;;12.30;99.90;;;;;;5072591;28;20017;-38
2023/10/22 06:04:13;;;;;;;2.75;1.88;;;12.20;99.90;;;;;;5072249;28;20044;-39
2023/10/22 06:06:38;;;;;;;1.58;1.48;;;12.30;99.90;;;;;;5072702;28;20071;-40
2023/10/22 06:09:04;;;;;;;5.22;1.38;;;12.30;99.90;;;;;;5072071;28;20025;-38
2023/10/22 06:11:30;;;;;;;5.95;1.75;;;12.20;99.90;;;;;;5072577;28;20032;-38
2023/10/22 06:13:56;;;;;;;2.00;1.67;;;12.30;99.90;;;;;;5072663;28;20477;-38
2023/10/22 06:16:25;;;;;;;3.13;1.63;;;12.20;99.90;;;;;;5072299;28;20082;-37
2023/10/22 06:18:51;;;;;;;1.23;1.13;;;12.20;99.90;;;;;;5072174;28;20472;-38
2023/10/22 06:21:17;;;;;;;5.05;1.83;;;12.20;99.90;;;;;;5072573;28;20021;-39
2023/10/22 06:23:43;;;;;;;3.75;1.63;;;12.20;99.90;;;;;;5071580;28;20027;-38
2023/10/22 06:26:11;;;;;;;4.53;1.60;;;12.20;99.90;;;;;;5071574;28;20028;-38
2023/10/22 06:28:37;;;;;;;6.40;1.55;;;12.20;99.90;;;;;;5072135;28;20025;-38
2023/10/22 06:31:07;;;;;;;4.28;1.83;;;12.30;99.90;;;;;;5071719;28;20040;-37
2023/10/22 06:33:34;;;;;;;2.25;2.05;;;12.30;99.90;;;;;;5071443;28;20046;-37
2023/10/22 06:36:11;;;;;;;4.90;2.27;;;12.30;99.90;;;;;;5071992;28;20035;-37
2023/10/22 06:38:37;;;;;;;5.03;2.63;;;12.30;99.90;;;;;;5071742;28;20035;-38
2023/10/22 06:41:04;;;;;;;5.55;2.28;;;12.40;99.90;;;;;;5071046;28;20025;-38
2023/10/22 06:43:29;;;;;;;6.40;2.47;;;12.40;99.90;;;;;;5071933;28;20381;-38
2023/10/22 06:45:59;;;;;;;8.77;2.63;;;12.40;99.90;;;;;;5071560;28;20056;-37
2023/10/22 06:48:25;;;;;;;9.32;2.83;;;12.40;99.90;;;;;;5072164;28;20056;-37
2023/10/22 06:50:50;;;;;;;7.80;2.67;;;12.40;99.90;;;;;;5072018;28;20048;-36
2023/10/22 06:53:16;;;;;;;5.70;2.38;;;12.40;99.90;;;;;;5071262;28;20028;-36
2023/10/22 06:55:42;;;;;;;6.78;2.92;;;12.40;99.90;;;;;;5073260;28;20462;-37
2023/10/22 06:58:08;;;;;;;4.38;2.80;;;12.40;99.90;;;;;;5074764;28;20028;-37
2023/10/22 07:00:33;;;;;;;3.03;2.22;;;12.40;99.90;;;;;;5075602;28;20405;-37
2023/10/22 07:02:59;;;;;;;5.32;2.80;;;12.40;99.90;;;;;;5075160;28;20024;-36
2023/10/22 07:05:24;;;;;;;8.75;3.35;;;12.40;99.90;;;;;;5075761;28;20063;-36
2023/10/22 07:07:50;;;;;;;8.23;2.85;;;12.40;99.90;;;;;;5075486;28;20567;-37
2023/10/22 07:10:16;;;;;;;4.07;2.67;;;12.50;99.90;;;;;;5074275;28;20028;-36
2023/10/22 07:12:41;;;;;;;7.00;2.63;;;12.40;99.90;;;;;;5075556;28;20347;-36
2023/10/22 07:15:09;;;;;;;18.33;4.78;;;12.40;99.90;;;;;;5075222;28;20029;-38
2023/10/22 07:17:34;;;;;;;9.50;3.22;;;12.40;99.90;;;;;;5093071;28;20384;-37
2023/10/22 07:20:00;;;;;;;4.78;3.22;;;12.40;99.90;;;;;;5095542;28;20024;-37
2023/10/22 07:22:26;;;;;;;6.18;3.00;;;12.40;99.90;;;;;;5095720;28;20087;-36
2023/10/22 07:24:51;;;;;;;10.27;3.75;;;12.40;99.90;;;;;;5095327;28;20024;-37
2023/10/22 07:27:17;;;;;;;5.43;2.90;;;12.40;99.90;;;;;;5086709;28;20020;-37
2023/10/22 07:29:43;;;;;;;8.60;3.72;;;12.40;99.90;;;;;;5074792;28;20064;-36
2023/10/22 07:32:10;;;;;;;5.95;3.35;;;12.40;99.90;;;;;;5074841;28;20480;-35
2023/10/22 07:34:36;;;;;;;9.20;2.90;;;12.40;99.90;;;;;;5075188;28;20028;-37
2023/10/22 07:37:01;;;;;;;5.82;2.90;;;12.40;99.90;;;;;;5074980;28;20445;-37
2023/10/22 07:39:27;;;;;;;5.32;2.90;;;12.40;99.90;;;;;;5066489;28;20044;-36
2023/10/22 07:41:53;;;;;;;4.00;2.47;;;12.50;99.90;;;;;;5074759;28;20047;-37
2023/10/22 07:44:19;;;;;;;5.38;2.63;;;12.50;99.90;;;;;;5074665;28;20108;-37
2023/10/22 07:46:44;;;;;;;3.83;2.38;;;12.50;99.90;;;;;;5074534;28;20493;-36
2023/10/22 07:49:11;;;;;;;4.22;2.20;;;12.50;99.90;;;;;;5056539;28;20024;-38
2023/10/22 07:51:37;;;;;;;2.72;2.28;;;12.40;99.90;;;;;;5074887;28;20411;-37
2023/10/22 07:54:03;;;;;;;2.55;1.75;;;12.50;99.90;;;;;;5056600;28;20025;-35
2023/10/22 07:56:28;;;;;;;3.42;2.22;;;12.40;99.90;;;;;;5074526;28;20492;-37
2023/10/22 07:58:54;;;;;;;4.28;1.92;;;12.40;99.90;;;;;;5074748;28;20369;-37
2023/10/22 08:01:21;;;;;;;7.05;1.85;;;12.40;99.90;;;;;;5074390;28;20021;-37
2023/10/22 08:03:49;;;;;;;11.02;2.20;;;12.40;99.90;;;;;;5074482;28;20024;-39
2023/10/22 08:06:15;;;;;;;5.22;2.92;;;12.50;99.90;;;;;;5059676;28;20027;-37
2023/10/22 08:08:41;;;;;;;4.28;2.67;;;12.50;99.90;;;;;;5074343;28;20389;-36
2023/10/22 08:11:06;;;;;;;6.13;2.80;;;12.60;99.90;;;;;;5074331;28;20031;-38
2023/10/22 08:13:32;;;;;;;8.98;2.25;;;12.60;99.90;;;;;;5074159;28;20518;-36
2023/10/22 08:16:04;;;;;;;9.85;2.80;;;12.70;99.90;;;;;;5074124;28;20035;-37
2023/10/22 08:18:30;;;;;;;9.52;2.40;;;12.80;99.90;;;;;;5065882;28;20101;-36
2023/10/22 08:21:03;;;;;;;8.10;2.80;;;12.90;99.90;;;;;;5074111;28;20074;-36
2023/10/22 08:23:30;;;;;;;6.60;2.10;;;13.10;99.90;;;;;;5074163;28;20412;-38
2023/10/22 08:25:57;;;;;;;10.20;2.00;;;13.20;99.90;;;;;;5074075;28;20532;-37
2023/10/22 08:28:23;;;;;;;7.28;2.72;;;13.30;99.90;;;;;;5073936;28;20021;-37
2023/10/22 08:30:49;;;;;;;6.47;2.13;;;13.30;99.90;;;;;;5074132;28;20428;-37
2023/10/22 08:33:16;;;;;;;5.18;2.25;;;13.30;99.90;;;;;;5073699;28;20086;-37
2023/10/22 08:35:41;;;;;;;11.10;2.60;;;13.30;99.90;;;;;;5073587;28;20029;-37
2023/10/22 08:38:07;;;;;;;3.42;1.90;;;13.30;99.90;;;;;;5073748;28;20016;-37
2023/10/22 08:40:41;;;;;;;7.22;2.03;;;13.30;99.90;;;;;;5055634;28;20489;-37
2023/10/22 08:43:17;;;;;;;4.22;1.80;;;13.30;99.90;;;;;;5073613;28;20028;-37
2023/10/22 08:45:48;;;;;;;5.53;1.60;;;13.20;99.90;;;;;;5073417;28;20053;-50
2023/10/22 08:48:15;;;;;;;6.13;2.13;;;13.20;99.90;;;;;;5073794;28;20020;-37
2023/10/22 08:51:01;;;;;;;4.97;1.83;;;13.10;99.90;;;;;;5065511;28;20051;-38
2023/10/22 08:53:27;;;;;;;6.68;2.03;;;13.10;99.90;;;;;;5070442;28;20021;-36
2023/10/22 08:55:56;;;;;;;4.45;2.05;;;13.00;99.90;;;;;;5071698;28;20029;-38
2023/10/22 08:58:22;;;;;;;4.32;2.95;;;13.10;99.90;;;;;;5072617;28;20064;-37
2023/10/22 09:00:49;;;;;;;2.42;1.92;;;13.10;99.90;;;;;;5046945;28;20047;-37
2023/10/22 09:03:18;;;;;;;3.78;1.63;;;13.30;99.90;;;;;;5065443;28;20086;-39
2023/10/22 09:05:45;;;;;;;5.90;2.10;;;13.50;99.90;;;;;;5065882;28;20111;-37
2023/10/22 09:08:11;;;;;;;2.72;2.15;;;13.60;99.90;;;;;;5064127;28;20029;-36
2023/10/22 09:10:37;;;;;;;5.22;1.80;;;13.70;99.90;;;;;;5040998;28;20047;-38
2023/10/22 09:13:23;;;;;;;3.42;1.75;;;13.70;99.90;;;;;;5064550;28;20027;-37
2023/10/22 09:15:52;;;;;;;2.40;2.15;;;13.70;99.90;;;;;;5064358;28;20418;-38
2023/10/22 09:18:18;;;;;;;3.88;1.75;;;13.60;99.90;;;;;;5063246;28;20425;-38
2023/10/22 09:20:45;;;;;;;1.67;1.50;;;13.60;99.90;;;;;;5066671;28;20021;-39
2023/10/22 09:23:22;;;;;;;5.30;1.92;;;13.50;99.90;;;;;;5065262;28;20032;-37
2023/10/22 09:25:50;;;;;;;2.13;1.58;;;13.50;99.90;;;;;;5035887;28;20388;-38
2023/10/22 09:28:21;;;;;;;3.72;1.52;;;13.50;99.90;;;;;;5063504;28;20021;-37
2023/10/22 09:30:47;;;;;;;4.63;1.50;;;13.50;99.90;;;;;;5063072;28;20442;-38
2023/10/22 09:33:17;;;;;;;4.57;1.98;;;13.50;99.90;;;;;;5071711;28;20024;-38
2023/10/22 09:36:07;;;;;;;5.00;1.98;;;13.60;99.90;;;;;;5072794;28;20452;-37
2023/10/22 09:38:46;;;;;;;3.83;1.90;;;13.60;99.90;;;;;;5072707;28;20044;-37
2023/10/22 09:41:32;;;;;;;5.97;1.50;;;13.70;99.90;;;;;;5072733;28;20051;-35
2023/10/22 09:44:00;;;;;;;3.53;1.95;;;13.80;99.90;;;;;;5072546;28;20437;-35
2023/10/22 09:46:32;;;;;;;10.32;1.88;;;13.70;99.90;;;;;;5072475;28;20555;-36
2023/10/22 09:49:00;;;;;;;2.90;1.60;;;13.90;99.90;;;;;;5072714;28;20389;-36
2023/10/22 09:51:30;;;;;;;6.43;2.08;;;13.90;99.90;;;;;;5052485;28;20075;-36
2023/10/22 09:53:57;;;;;;;7.50;2.03;;;14.00;99.90;;;;;;5052636;28;20025;-36
2023/10/22 09:56:23;;;;;;;4.25;1.70;;;14.10;99.90;;;;;;5052459;28;20568;-38
2023/10/22 09:59:03;;;;;;;5.97;1.88;;;14.10;99.90;;;;;;5052358;28;20025;-40
2023/10/22 10:01:33;;;;;;;6.50;2.45;;;14.30;99.90;;;;;;5070912;28;20012;-39
2023/10/22 10:04:00;;;;;;;15.63;3.88;;;14.40;99.90;;;;;;5072697;28;20024;-42
2023/10/22 10:06:27;;;;;;;4.32;1.65;;;14.60;99.90;;;;;;5072212;28;20455;-41
2023/10/22 10:08:53;;;;;;;5.38;2.30;;;14.70;99.90;;;;;;5072551;28;20030;-38
2023/10/22 10:11:20;;;;;;;7.45;1.33;;;14.70;99.90;;;;;;5072747;28;20025;-38
2023/10/22 10:13:46;;;;;;;2.20;1.40;;;14.80;99.90;;;;;;5072199;28;20047;-37
2023/10/22 10:16:11;;;;;;;2.53;1.20;;;14.90;99.90;;;;;;5071979;28;20020;-37
2023/10/22 10:18:59;;;;;;;2.92;1.27;;;14.90;99.90;;;;;;5072060;28;20366;-37
2023/10/22 10:21:34;;;;;;;1.30;0.70;;;14.90;99.90;;;;;;5072381;28;20035;-41
2023/10/22 10:24:23;;;;;;;3.70;1.08;;;15.10;99.90;;;;;;5072212;28;20048;-37
2023/10/22 10:27:13;;;;;;;2.10;1.50;;;15.20;99.90;;;;;;5072422;28;20412;-37
2023/10/22 10:29:40;;;;;;;3.97;0.98;;;15.40;99.90;;;;;;5061707;28;20108;-40
2023/10/22 10:32:14;;;;;;;3.22;1.13;;;15.40;99.90;;;;;;5076401;28;20025;-38
2023/10/22 10:34:43;;;;;;;1.40;0.88;;;15.30;99.90;;;;;;5076260;28;20111;-37
2023/10/22 10:37:13;;;;;;;7.30;1.83;;;15.30;99.90;;;;;;5076219;28;20016;-38
2023/10/22 10:39:41;;;;;;;4.35;1.05;;;15.20;99.90;;;;;;5075974;28;20089;-39
2023/10/22 10:42:07;;;;;;;4.22;1.88;;;15.20;99.90;;;;;;5076192;28;20491;-38
2023/10/22 10:44:58;;;;;;;1.38;1.10;;;15.20;99.90;;;;;;5075957;28;20017;-37
2023/10/22 10:47:24;;;;;;;1.52;1.00;;;15.30;99.90;;;;;;5075658;28;20033;-42
2023/10/22 10:50:11;;;;;;;5.75;1.52;;;15.40;99.90;;;;;;5057809;28;20025;-38
2023/10/22 10:52:37;;;;;;;;;;;15.50;99.90;;;;;;5076451;28;20043;-40
2023/10/22 10:55:18;;;;;;;5.10;1.20;;;15.60;99.90;;;;;;5075582;28;19909;-38
2023/10/22 10:57:51;;;;;;;2.03;1.10;;;15.60;99.90;;;;;;5057723;28;20032;-37
2023/10/22 11:00:24;;;;;;;1.30;1.20;;;15.50;99.90;;;;;;5075911;28;20143;-41
2023/10/22 11:02:51;;;;;;;1.83;1.23;;;15.50;99.90;;;;;;5075572;28;20401;-44
2023/10/22 11:05:40;;;;;;;4.65;1.50;;;15.50;99.90;;;;;;5075515;28;20031;-41
2023/10/22 11:08:13;;;;;;;0.80;0.73;;;15.40;99.90;;;;;;5075640;28;20086;-43
2023/10/22 11:10:38;;;;;;;2.10;1.23;;;15.30;99.90;;;;;;5075690;28;20408;-39
2023/10/22 11:13:08;;;;;;;1.88;1.25;;;15.40;99.90;;;;;;5075349;28;20028;-37
2023/10/22 11:15:35;;;;;;;1.45;1.00;;;15.50;99.90;;;;;;5075427;28;20035;-40
2023/10/22 11:18:06;;;;;;;8.00;1.13;;;15.60;99.90;;;;;;5075365;28;20048;-42
2023/10/22 11:20:32;;;;;;;3.65;0.93;;;15.50;99.90;;;;;;5057217;28;20028;-40
2023/10/22 11:22:59;;;;;;;1.13;0.65;;;15.50;99.90;;;;;;5075241;28;20021;-45
2023/10/22 11:25:26;;;;;;;3.08;0.70;;;15.60;99.90;;;;;;5075364;28;20020;-44
2023/10/22 11:27:52;;;;;;;4.40;0.55;;;15.60;99.90;;;;;;5075448;28;20016;-40
2023/10/22 11:30:43;;;;;;;3.28;0.70;;;15.70;99.90;;;;;;5075334;28;20020;-41
2023/10/22 11:33:11;;;;;;;3.97;1.95;;;15.80;99.90;;;;;;5057056;28;20055;-42
2023/10/22 11:35:37;;;;;;;0.82;0.50;;;15.90;99.90;;;;;;5075229;28;20025;-44
2023/10/22 11:38:06;;;;;;;1.05;0.70;;;16.00;99.90;;;;;;5075170;28;20023;-40
2023/10/22 11:40:39;;;;;;;3.97;0.95;;;16.00;99.90;;;;;;5074373;28;20021;-43
2023/10/22 11:43:16;;;;;;;5.82;0.68;;;16.20;99.90;;;;;;5075403;28;20032;-43
2023/10/22 11:45:55;;;;;;;1.58;0.60;;;16.40;99.90;;;;;;5074747;28;20536;-47
2023/10/22 11:48:26;;;;;;;2.13;0.75;;;16.50;99.90;;;;;;5075044;28;20036;-45
2023/10/22 11:50:56;;;;;;;1.17;0.70;;;16.40;99.90;;;;;;5074961;28;20045;-41
2023/10/22 11:53:26;;;;;;;2.97;0.82;;;16.40;99.90;;;;;;5074565;28;20397;-48
2023/10/22 11:55:52;;;;;;;3.33;1.02;;;16.30;99.90;;;;;;5074589;28;20086;-41
2023/10/22 11:58:19;;;;;;;1.73;0.80;;;16.30;99.90;;;;;;5074517;28;20021;-41
2023/10/22 12:00:46;;;;;;;1.10;0.68;;;16.20;99.90;;;;;;5074785;28;20386;-41
2023/10/22 12:03:11;;;;;;;1.98;0.93;;;16.10;99.90;;;;;;5074516;28;20016;-42
2023/10/22 12:05:37;;;;;;;1.35;0.95;;;16.10;99.90;;;;;;5074662;28;20138;-43
2023/10/22 12:08:03;;;;;;;0.50;0.30;;;16.10;99.90;;;;;;5074353;28;20024;-47
2023/10/22 12:10:28;;;;;;;1.15;0.70;;;16.20;99.90;;;;;;5074301;28;20020;-39
2023/10/22 12:12:54;;;;;;;0.77;0.60;;;16.40;99.90;;;;;;5074120;28;20021;-42
2023/10/22 12:15:20;;;;;;;1.60;0.50;;;16.40;99.90;;;;;;5056592;28;20496;-42
2023/10/22 12:17:46;;;;;;;4.15;0.50;;;16.50;99.90;;;;;;5074131;28;20025;-42
2023/10/22 12:20:11;;;;;;;1.05;0.73;;;16.50;99.90;;;;;;5074116;28;20017;-41
2023/10/22 12:22:37;;;;;;;3.30;0.80;;;16.50;99.90;;;;;;5073995;28;20473;-45
2023/10/22 12:25:04;;;;;;;0.93;0.82;;;16.50;99.90;;;;;;5074219;28;20033;-45
2023/10/22 12:27:33;;;;;;;1.77;0.32;;;16.50;99.90;;;;;;5073833;28;20025;-40
2023/10/22 12:29:59;;;;;;;2.83;0.77;;;16.50;99.90;;;;;;5073812;28;20064;-43
2023/10/22 12:32:25;;;;;;;1.83;0.50;;;16.50;99.90;;;;;;5074102;28;20020;-41
2023/10/22 12:34:51;;;;;;;0.95;0.50;;;16.40;99.90;;;;;;5073583;28;20027;-36
2023/10/22 12:37:16;;;;;;;0.95;0.75;;;16.50;99.90;;;;;;5074005;28;20043;-43
2023/10/22 12:39:42;;;;;;;0.55;0.38;;;16.40;99.90;;;;;;5073675;28;20024;-42
2023/10/22 12:42:10;;;;;;;2.50;0.70;;;16.30;99.90;;;;;;5073555;28;20469;-46
2023/10/22 12:44:36;;;;;;;1.13;0.30;;;16.20;99.90;;;;;;5055725;28;20064;-43
2023/10/22 12:47:01;;;;;;;2.63;0.50;;;16.10;99.90;;;;;;5055810;28;20048;-47
2023/10/22 12:49:27;;;;;;;0.88;0.43;;;16.10;99.90;;;;;;5073455;28;20032;-41